Funchalense 5 — CSKN — position and weather

sailwx.info

Track history (hours):
 
Tides and Currents Weather Stations Pressure Air Temp Water Temp Dewpoint Dewpoint Depression Visibility Wind Speed Wind Dir Waves Ship Positions

Funchalense 5

Last reported at 2015-Aug-30 00:22 UTC. Time now 2015-Sep-04 03:55 UTC.
Position N 37°46' W 010°38'.

Length 127 m; draft 7 m.

Type: Ship. MMSI: 255804250.

Date/timePositionNaut miles runAvg speedWind from/ knotsBaromVisibWave heightAir tempDewpointWater temp
2015-Aug-30 00:22N 37°46' W 010°38'1315.8
2015-Aug-29 23:33N 37°54' W 010°26'1615.8
2015-Aug-29 22:33N 38°05' W 010°11'1515.0
2015-Aug-29 21:33N 38°14' W 009°57'1515.2
2015-Aug-29 20:33N 38°24' W 009°42'1515.0
2015-Aug-29 19:33N 38°34' W 009°27'1715.0
2015-Aug-29 18:26N 38°42' W 009°08'2 0.2
2015-Aug-29 11:13N 38°43' W 009°07'0 0.0
2015-Aug-29 10:30N 38°43' W 009°07'0 0.0
2015-Aug-29 09:33N 38°43' W 009°07'0 0.0
2015-Aug-29 08:34N 38°43' W 009°07'0 0.0
2015-Aug-29 07:33N 38°43' W 009°07'0 0.0
2015-Aug-29 06:33N 38°43' W 009°07'0 0.0
2015-Aug-29 05:32N 38°43' W 009°07'0 0.0
2015-Aug-29 04:33N 38°43' W 009°07'0 0.0
2015-Aug-29 03:34N 38°43' W 009°07'0 0.0
2015-Aug-29 02:30N 38°43' W 009°07'0 0.0
2015-Aug-29 01:32N 38°43' W 009°07'0 0.0
2015-Aug-29 00:30N 38°43' W 009°07'0 0.0
2015-Aug-28 23:33N 38°43' W 009°07'0 0.0
2015-Aug-28 22:33N 38°43' W 009°07'0 0.0
2015-Aug-28 21:30N 38°43' W 009°07'0 0.0
2015-Aug-28 20:32N 38°43' W 009°07'0 0.0
2015-Aug-28 19:33N 38°43' W 009°07'0 0.0
2015-Aug-28 18:34N 38°43' W 009°07'0 0.0
2015-Aug-28 17:33N 38°43' W 009°07'0 0.0
2015-Aug-28 16:34N 38°43' W 009°07'0 0.0
2015-Aug-28 15:23N 38°43' W 009°07'0 0.0
2015-Aug-28 13:30N 38°43' W 009°07'0 0.0
2015-Aug-28 09:32N 38°43' W 009°07'0 0.0
2015-Aug-28 08:14N 38°43' W 009°07'0 0.0
2015-Aug-28 07:18N 38°43' W 009°07'0 0.0
2015-Aug-28 06:11N 38°43' W 009°07'0 0.0
2015-Aug-28 05:14N 38°43' W 009°07'0 0.0
2015-Aug-28 04:18N 38°43' W 009°07'0 0.0
2015-Aug-28 03:32N 38°43' W 009°07'0 0.0
2015-Aug-28 02:29N 38°43' W 009°07'0 0.0
2015-Aug-28 01:33N 38°43' W 009°07'0 0.0
2015-Aug-28 00:33N 38°43' W 009°07'0 0.0
2015-Aug-27 23:32N 38°43' W 009°07'0 0.0
2015-Aug-27 22:31N 38°43' W 009°07'0 0.0
2015-Aug-27 21:16N 38°43' W 009°07'0 0.0
2015-Aug-27 20:34N 38°43' W 009°07'0 0.0
2015-Aug-27 19:33N 38°43' W 009°07'0 0.0
2015-Aug-27 18:27N 38°43' W 009°07'0 0.0
2015-Aug-27 17:33N 38°43' W 009°07'0 0.0
2015-Aug-27 16:33N 38°43' W 009°07'0 0.0
2015-Aug-27 15:33N 38°43' W 009°07'0 0.0
2015-Aug-27 14:25N 38°43' W 009°07'0 0.0
2015-Aug-27 13:30N 38°43' W 009°07'0 0.0
2015-Aug-27 12:20N 38°43' W 009°07'0 0.0
2015-Aug-27 11:33N 38°43' W 009°07'0 0.0
2015-Aug-27 10:32N 38°43' W 009°07'0 0.0
2015-Aug-27 09:08N 38°43' W 009°07'2 3.4
2015-Aug-27 08:33N 38°42' W 009°09'1312.9
2015-Aug-27 07:33N 38°37' W 009°24'2 1.7
2015-Aug-27 06:33N 38°35' W 009°25'1 0.8
2015-Aug-27 05:34N 38°36' W 009°25'7 7.1
2015-Aug-27 04:34N 38°31' W 009°31'1515.3
2015-Aug-27 03:33N 38°20' W 009°45'1615.9
2015-Aug-27 02:33N 38°10' W 010°01'1515.3
2015-Aug-27 01:33N 38°00' W 010°16'1515.1
2015-Aug-27 00:33N 37°51' W 010°31'1514.8
2015-Aug-26 23:33N 37°42' W 010°45'1515.2
2015-Aug-26 22:33N 37°32' W 010°60'1515.2
2015-Aug-26 21:32N 37°21' W 011°14'1614.8
2015-Aug-26 20:28N 37°11' W 011°29'  
2015-Aug-23 00:20N 38°09' W 010°04'1316.1
2015-Aug-22 23:33N 38°17' W 009°52'1616.0
2015-Aug-22 22:33N 38°28' W 009°37'1616.1
2015-Aug-22 21:33N 38°38' W 009°21'12 0.7
2015-Aug-22 05:04N 38°43' W 009°07'2 3.4
2015-Aug-22 04:33N 38°42' W 009°08'1514.8
2015-Aug-22 03:33N 38°37' W 009°26'1413.9
2015-Aug-22 02:33N 38°41' W 009°43'1515.3
2015-Aug-22 01:33N 38°57' W 009°44'1515.5
2015-Aug-22 00:33N 39°12' W 009°46'6215.0
2015-Aug-21 20:26N 40°12' W 009°25'1815.1
2015-Aug-21 19:12N 40°28' W 009°13'1615.1
2015-Aug-21 18:08N 40°42' W 009°03'33 2.8
2015-Aug-21 06:19N 41°11' W 008°42'0 0.0
2015-Aug-21 05:34N 41°11' W 008°42'0 0.0
2015-Aug-21 04:33N 41°11' W 008°42'0 0.0
2015-Aug-21 02:33N 41°11' W 008°42'0 0.0
2015-Aug-21 01:25N 41°11' W 008°42'0 0.0
2015-Aug-21 00:33N 41°11' W 008°42'0 0.0
2015-Aug-20 23:33N 41°11' W 008°42'0 0.0
2015-Aug-20 22:34N 41°11' W 008°42'0 0.0
2015-Aug-20 21:33N 41°11' W 008°42'0 0.0
2015-Aug-20 20:33N 41°11' W 008°42'0 0.0
2015-Aug-20 19:33N 41°11' W 008°42'0 0.0
2015-Aug-20 18:14N 41°11' W 008°42'0 0.0
2015-Aug-20 17:34N 41°11' W 008°42'0 0.0
2015-Aug-20 16:32N 41°11' W 008°42'0 0.0
2015-Aug-20 15:30N 41°11' W 008°42'0 0.0
2015-Aug-20 14:33N 41°11' W 008°42'8 7.9
2015-Aug-20 13:33N 41°04' W 008°47'1716.5
2015-Aug-20 12:33N 40°48' W 008°54'1716.6
2015-Aug-20 11:33N 40°32' W 008°59'1616.6
2015-Aug-20 10:33N 40°16' W 009°03'1616.2
2015-Aug-20 09:33N 40°01' W 009°09'1716.4
2015-Aug-20 08:32N 39°49' W 009°25'1616.1
2015-Aug-20 07:33N 39°38' W 009°40'1716.1
2015-Aug-20 06:32N 39°27' W 009°56'1616.1
2015-Aug-20 05:33N 39°17' W 010°11'1616.1
2015-Aug-20 04:33N 39°06' W 010°26'1616.2
2015-Aug-20 03:34N 38°55' W 010°41'1616.1
2015-Aug-20 02:33N 38°44' W 010°56'3315.6
2015-Aug-20 00:28N 38°21' W 011°26'  
Track history (hours):
 
Tides and Currents Weather Stations Pressure Air Temp Water Temp Dewpoint Dewpoint Depression Visibility Wind Speed Wind Dir Waves Ship Positions

Funchalense 5

Last reported at 2015-Aug-30 00:22 UTC. Time now 2015-Sep-04 03:55 UTC.
Position N 37°46' W 010°38'.

Length 127 m; draft 7 m.

Type: Ship. MMSI: 255804250.

Date/timePositionNaut miles runAvg speedWind from/ knotsBaromVisibWave heightAir tempDewpointWater temp
2015-Aug-30 00:22N 37°46' W 010°38'1315.8
2015-Aug-29 23:33N 37°54' W 010°26'1615.8
2015-Aug-29 22:33N 38°05' W 010°11'1515.0
2015-Aug-29 21:33N 38°14' W 009°57'1515.2
2015-Aug-29 20:33N 38°24' W 009°42'1515.0
2015-Aug-29 19:33N 38°34' W 009°27'1715.0
2015-Aug-29 18:26N 38°42' W 009°08'2 0.2
2015-Aug-29 11:13N 38°43' W 009°07'0 0.0
2015-Aug-29 10:30N 38°43' W 009°07'0 0.0
2015-Aug-29 09:33N 38°43' W 009°07'0 0.0
2015-Aug-29 08:34N 38°43' W 009°07'0 0.0
2015-Aug-29 07:33N 38°43' W 009°07'0 0.0
2015-Aug-29 06:33N 38°43' W 009°07'0 0.0
2015-Aug-29 05:32N 38°43' W 009°07'0 0.0
2015-Aug-29 04:33N 38°43' W 009°07'0 0.0
2015-Aug-29 03:34N 38°43' W 009°07'0 0.0
2015-Aug-29 02:30N 38°43' W 009°07'0 0.0
2015-Aug-29 01:32N 38°43' W 009°07'0 0.0
2015-Aug-29 00:30N 38°43' W 009°07'0 0.0
2015-Aug-28 23:33N 38°43' W 009°07'0 0.0
2015-Aug-28 22:33N 38°43' W 009°07'0 0.0
2015-Aug-28 21:30N 38°43' W 009°07'0 0.0
2015-Aug-28 20:32N 38°43' W 009°07'0 0.0
2015-Aug-28 19:33N 38°43' W 009°07'0 0.0
2015-Aug-28 18:34N 38°43' W 009°07'0 0.0
2015-Aug-28 17:33N 38°43' W 009°07'0 0.0
2015-Aug-28 16:34N 38°43' W 009°07'0 0.0
2015-Aug-28 15:23N 38°43' W 009°07'0 0.0
2015-Aug-28 13:30N 38°43' W 009°07'0 0.0
2015-Aug-28 09:32N 38°43' W 009°07'0 0.0
2015-Aug-28 08:14N 38°43' W 009°07'0 0.0
2015-Aug-28 07:18N 38°43' W 009°07'0 0.0
2015-Aug-28 06:11N 38°43' W 009°07'0 0.0
2015-Aug-28 05:14N 38°43' W 009°07'0 0.0
2015-Aug-28 04:18N 38°43' W 009°07'0 0.0
2015-Aug-28 03:32N 38°43' W 009°07'0 0.0
2015-Aug-28 02:29N 38°43' W 009°07'0 0.0
2015-Aug-28 01:33N 38°43' W 009°07'0 0.0
2015-Aug-28 00:33N 38°43' W 009°07'0 0.0
2015-Aug-27 23:32N 38°43' W 009°07'0 0.0
2015-Aug-27 22:31N 38°43' W 009°07'0 0.0
2015-Aug-27 21:16N 38°43' W 009°07'0 0.0
2015-Aug-27 20:34N 38°43' W 009°07'0 0.0
2015-Aug-27 19:33N 38°43' W 009°07'0 0.0
2015-Aug-27 18:27N 38°43' W 009°07'0 0.0
2015-Aug-27 17:33N 38°43' W 009°07'0 0.0
2015-Aug-27 16:33N 38°43' W 009°07'0 0.0
2015-Aug-27 15:33N 38°43' W 009°07'0 0.0
2015-Aug-27 14:25N 38°43' W 009°07'0 0.0
2015-Aug-27 13:30N 38°43' W 009°07'0 0.0
2015-Aug-27 12:20N 38°43' W 009°07'0 0.0
2015-Aug-27 11:33N 38°43' W 009°07'0 0.0
2015-Aug-27 10:32N 38°43' W 009°07'0 0.0
2015-Aug-27 09:08N 38°43' W 009°07'2 3.4
2015-Aug-27 08:33N 38°42' W 009°09'1312.9
2015-Aug-27 07:33N 38°37' W 009°24'2 1.7
2015-Aug-27 06:33N 38°35' W 009°25'1 0.8
2015-Aug-27 05:34N 38°36' W 009°25'7 7.1
2015-Aug-27 04:34N 38°31' W 009°31'1515.3
2015-Aug-27 03:33N 38°20' W 009°45'1615.9
2015-Aug-27 02:33N 38°10' W 010°01'1515.3
2015-Aug-27 01:33N 38°00' W 010°16'1515.1
2015-Aug-27 00:33N 37°51' W 010°31'1514.8
2015-Aug-26 23:33N 37°42' W 010°45'1515.2
2015-Aug-26 22:33N 37°32' W 010°60'1515.2
2015-Aug-26 21:32N 37°21' W 011°14'1614.8
2015-Aug-26 20:28N 37°11' W 011°29'  
2015-Aug-23 00:20N 38°09' W 010°04'1316.1
2015-Aug-22 23:33N 38°17' W 009°52'1616.0
2015-Aug-22 22:33N 38°28' W 009°37'1616.1
2015-Aug-22 21:33N 38°38' W 009°21'12 0.7
2015-Aug-22 05:04N 38°43' W 009°07'2 3.4
2015-Aug-22 04:33N 38°42' W 009°08'1514.8
2015-Aug-22 03:33N 38°37' W 009°26'1413.9
2015-Aug-22 02:33N 38°41' W 009°43'1515.3
2015-Aug-22 01:33N 38°57' W 009°44'1515.5
2015-Aug-22 00:33N 39°12' W 009°46'6215.0
2015-Aug-21 20:26N 40°12' W 009°25'1815.1
2015-Aug-21 19:12N 40°28' W 009°13'1615.1
2015-Aug-21 18:08N 40°42' W 009°03'33 2.8
2015-Aug-21 06:19N 41°11' W 008°42'0 0.0
2015-Aug-21 05:34N 41°11' W 008°42'0 0.0
2015-Aug-21 04:33N 41°11' W 008°42'0 0.0
2015-Aug-21 02:33N 41°11' W 008°42'0 0.0
2015-Aug-21 01:25N 41°11' W 008°42'0 0.0
2015-Aug-21 00:33N 41°11' W 008°42'0 0.0
2015-Aug-20 23:33N 41°11' W 008°42'0 0.0
2015-Aug-20 22:34N 41°11' W 008°42'0 0.0
2015-Aug-20 21:33N 41°11' W 008°42'0 0.0
2015-Aug-20 20:33N 41°11' W 008°42'0 0.0
2015-Aug-20 19:33N 41°11' W 008°42'0 0.0
2015-Aug-20 18:14N 41°11' W 008°42'0 0.0
2015-Aug-20 17:34N 41°11' W 008°42'0 0.0
2015-Aug-20 16:32N 41°11' W 008°42'0 0.0
2015-Aug-20 15:30N 41°11' W 008°42'0 0.0
2015-Aug-20 14:33N 41°11' W 008°42'8 7.9
2015-Aug-20 13:33N 41°04' W 008°47'1716.5
2015-Aug-20 12:33N 40°48' W 008°54'1716.6
2015-Aug-20 11:33N 40°32' W 008°59'1616.6
2015-Aug-20 10:33N 40°16' W 009°03'1616.2
2015-Aug-20 09:33N 40°01' W 009°09'1716.4
2015-Aug-20 08:32N 39°49' W 009°25'1616.1
2015-Aug-20 07:33N 39°38' W 009°40'1716.1
2015-Aug-20 06:32N 39°27' W 009°56'1616.1
2015-Aug-20 05:33N 39°17' W 010°11'1616.1
2015-Aug-20 04:33N 39°06' W 010°26'1616.2
2015-Aug-20 03:34N 38°55' W 010°41'1616.1
2015-Aug-20 02:33N 38°44' W 010°56'3315.6
2015-Aug-20 00:28N 38°21' W 011°26'  

Dump ship's entire track history